createdAt,value
2022-10-06T00:00:22.433Z,32.58
2022-10-06T00:02:51.478Z,28.05
2022-10-06T00:05:20.567Z,25.83
2022-10-06T00:07:50.093Z,27.30
2022-10-06T00:10:19.565Z,24.30
2022-10-06T00:12:52.904Z,20.48
2022-10-06T00:15:26.212Z,20.90
2022-10-06T00:17:56.213Z,17.77
2022-10-06T00:20:26.093Z,18.80
2022-10-06T00:22:56.409Z,21.52
2022-10-06T00:25:28.251Z,25.80
2022-10-06T00:27:58.929Z,21.52
2022-10-06T00:30:31.265Z,29.35
2022-10-06T00:33:03.148Z,32.05
2022-10-06T00:35:35.669Z,32.28
2022-10-06T00:38:06.240Z,29.02
2022-10-06T00:40:35.441Z,25.48
2022-10-06T00:43:07.606Z,18.38
2022-10-06T00:45:43.812Z,17.90
2022-10-06T00:48:20.060Z,15.65
2022-10-06T00:50:49.761Z,15.75
2022-10-06T00:53:18.949Z,15.25
2022-10-06T00:55:48.388Z,12.35
2022-10-06T00:58:19.548Z,13.00
2022-10-06T01:00:50.613Z,13.90
2022-10-06T01:03:25.651Z,12.82
2022-10-06T01:05:55.895Z,12.10
2022-10-06T01:08:26.068Z,11.32
2022-10-06T01:10:55.448Z,10.80
2022-10-06T01:13:27.665Z,10.98
2022-10-06T01:16:03.625Z,10.95
2022-10-06T01:18:34.408Z,10.50
2022-10-06T01:21:11.982Z,13.77
2022-10-06T01:23:42.548Z,13.10
2022-10-06T01:26:14.601Z,13.10
2022-10-06T01:28:43.716Z,12.65
2022-10-06T01:31:12.999Z,12.00
2022-10-06T01:33:44.736Z,13.98
2022-10-06T01:36:14.652Z,13.38
2022-10-06T01:38:46.106Z,15.35
2022-10-06T01:41:15.412Z,13.73
2022-10-06T01:43:44.513Z,14.27
2022-10-06T01:46:13.643Z,12.07
2022-10-06T01:48:43.433Z,11.27
2022-10-06T01:51:17.101Z,10.75
2022-10-06T01:53:47.555Z,10.32
2022-10-06T01:56:16.630Z,10.70
2022-10-06T01:58:45.770Z,10.70
2022-10-06T02:01:14.999Z,13.77
2022-10-06T02:03:44.282Z,14.77
2022-10-06T02:06:13.316Z,13.43
2022-10-06T02:08:44.872Z,12.70
2022-10-06T02:11:15.769Z,15.48
2022-10-06T02:13:45.684Z,12.57
2022-10-06T02:16:14.938Z,12.10
2022-10-06T02:18:45.464Z,10.90
2022-10-06T02:21:19.690Z,9.82
2022-10-06T02:23:48.935Z,9.65
2022-10-06T02:26:20.074Z,9.88
2022-10-06T02:28:51.408Z,9.30
2022-10-06T02:31:24.095Z,10.90
2022-10-06T02:33:54.133Z,12.32
2022-10-06T02:36:25.226Z,11.23
2022-10-06T02:38:54.565Z,11.38
2022-10-06T02:41:25.456Z,11.45
2022-10-06T02:43:55.260Z,10.40
2022-10-06T02:46:25.192Z,11.40
2022-10-06T02:48:54.879Z,10.50
2022-10-06T02:51:25.179Z,10.45
2022-10-06T02:53:54.563Z,10.43
2022-10-06T02:56:27.165Z,11.70
2022-10-06T02:58:56.567Z,12.88
2022-10-06T03:01:32.408Z,11.68
2022-10-06T03:04:08.305Z,10.07
2022-10-06T03:06:37.404Z,12.43
2022-10-06T03:09:19.377Z,12.13
2022-10-06T03:11:49.912Z,11.98
2022-10-06T03:14:26.740Z,12.50
2022-10-06T03:16:57.352Z,15.25
2022-10-06T03:19:28.972Z,13.52
2022-10-06T03:21:58.019Z,14.45
2022-10-06T03:24:35.659Z,10.40
2022-10-06T03:27:06.282Z,10.88
2022-10-06T03:29:35.561Z,11.25
2022-10-06T03:32:06.103Z,9.52
2022-10-06T03:34:36.065Z,9.20
2022-10-06T03:37:07.783Z,10.38
2022-10-06T03:39:36.840Z,11.70
2022-10-06T03:42:07.390Z,10.85
2022-10-06T03:44:36.991Z,13.30
2022-10-06T03:47:07.131Z,12.27
2022-10-06T03:49:36.680Z,14.73
2022-10-06T03:52:05.705Z,16.33
2022-10-06T03:54:38.722Z,15.07
2022-10-06T03:57:09.429Z,15.40
2022-10-06T03:59:39.586Z,19.08
2022-10-06T04:02:09.140Z,19.98
2022-10-06T04:04:39.756Z,18.67
2022-10-06T04:07:13.128Z,19.38
2022-10-06T04:09:42.648Z,16.92
2022-10-06T04:12:14.935Z,20.42
2022-10-06T04:14:46.818Z,17.52
2022-10-06T04:17:16.049Z,15.02
2022-10-06T04:19:45.745Z,14.27
2022-10-06T04:22:15.646Z,13.00
2022-10-06T04:24:44.869Z,12.85
2022-10-06T04:27:30.741Z,13.50
2022-10-06T04:30:13.219Z,13.25
2022-10-06T04:32:43.154Z,13.30
2022-10-06T04:35:12.996Z,14.88
2022-10-06T04:37:42.139Z,14.25
2022-10-06T04:40:12.205Z,13.23
2022-10-06T04:42:43.100Z,13.27
2022-10-06T04:45:15.949Z,14.73
2022-10-06T04:47:45.967Z,14.30
2022-10-06T04:50:15.203Z,13.05
2022-10-06T04:53:04.139Z,14.13
2022-10-06T04:55:33.814Z,13.07
2022-10-06T04:58:04.381Z,15.50
2022-10-06T05:00:33.513Z,17.80
2022-10-06T05:03:03.218Z,18.48
2022-10-06T05:05:32.561Z,14.55
2022-10-06T05:08:01.688Z,17.65
2022-10-06T05:10:30.873Z,23.27
2022-10-06T05:13:00.094Z,15.95
2022-10-06T05:15:31.677Z,15.63
2022-10-06T05:18:00.809Z,13.73
2022-10-06T05:20:29.862Z,15.10
2022-10-06T05:22:58.958Z,13.55
2022-10-06T05:25:28.094Z,12.02
2022-10-06T05:27:57.408Z,11.90
2022-10-06T05:30:26.630Z,12.07
2022-10-06T05:32:57.105Z,12.57
2022-10-06T05:35:27.019Z,11.45
2022-10-06T05:37:56.104Z,12.65
2022-10-06T05:40:25.268Z,11.55
2022-10-06T05:42:56.809Z,11.27
2022-10-06T05:45:26.102Z,11.20
2022-10-06T05:47:57.079Z,11.75
2022-10-06T05:50:26.097Z,13.48
2022-10-06T05:52:56.532Z,13.13
2022-10-06T05:55:26.362Z,12.13
2022-10-06T05:57:56.265Z,12.68
2022-10-06T06:00:25.677Z,12.60
2022-10-06T06:02:56.162Z,12.13
2022-10-06T06:05:25.336Z,13.40
2022-10-06T06:07:54.379Z,12.70
2022-10-06T06:10:23.464Z,11.80
2022-10-06T06:12:52.497Z,10.60
2022-10-06T06:15:57.608Z,11.82
2022-10-06T06:18:28.664Z,14.05
2022-10-06T06:20:59.421Z,16.77
2022-10-06T06:23:33.564Z,14.75
2022-10-06T06:26:06.466Z,17.75
2022-10-06T06:28:40.362Z,18.40
2022-10-06T06:31:15.101Z,19.42
2022-10-06T06:33:53.097Z,22.08
2022-10-06T06:36:26.344Z,26.65
2022-10-06T06:38:57.823Z,26.00
2022-10-06T06:41:29.834Z,26.02
2022-10-06T06:44:08.317Z,25.80
2022-10-06T06:46:43.107Z,17.75
2022-10-06T06:49:19.074Z,14.55
2022-10-06T06:51:54.329Z,19.40
2022-10-06T06:54:27.726Z,20.77
2022-10-06T06:59:34.113Z,22.67
2022-10-06T07:02:03.543Z,20.95
2022-10-06T07:04:37.422Z,18.67
2022-10-06T07:07:08.292Z,19.55
2022-10-06T07:09:39.298Z,19.10
2022-10-06T07:12:15.469Z,17.48
2022-10-06T07:15:09.850Z,18.52
2022-10-06T07:18:00.033Z,21.17
2022-10-06T07:20:49.426Z,19.40
2022-10-06T07:23:39.704Z,19.58
2022-10-06T07:26:13.719Z,18.35
2022-10-06T07:28:43.113Z,19.38
2022-10-06T07:31:13.727Z,16.52
2022-10-06T07:33:42.882Z,15.85
2022-10-06T07:36:15.473Z,15.07
2022-10-06T07:38:47.840Z,14.02
2022-10-06T07:41:19.720Z,12.43
2022-10-06T07:43:56.081Z,13.25
2022-10-06T07:46:26.745Z,14.50
2022-10-06T07:51:34.801Z,13.88
2022-10-06T07:54:05.312Z,12.65
2022-10-06T07:56:52.917Z,12.63
2022-10-06T07:59:22.630Z,12.10
2022-10-06T08:01:52.933Z,11.80
2022-10-06T08:04:21.972Z,11.55
2022-10-06T08:06:52.381Z,10.77
2022-10-06T08:09:22.219Z,10.57
2022-10-06T08:11:51.306Z,11.45
2022-10-06T08:14:20.398Z,11.15
2022-10-06T08:16:49.454Z,11.57
2022-10-06T08:19:19.690Z,10.00
2022-10-06T08:21:48.729Z,10.45
2022-10-06T08:24:19.730Z,10.57
2022-10-06T08:26:48.737Z,10.20
2022-10-06T08:29:17.768Z,9.93
2022-10-06T08:31:46.844Z,9.35
2022-10-06T08:34:15.975Z,10.00
2022-10-06T08:37:02.115Z,9.55
2022-10-06T08:39:35.373Z,8.50
2022-10-06T08:42:04.655Z,9.95
2022-10-06T08:44:39.964Z,8.43
2022-10-06T08:47:18.604Z,8.82
2022-10-06T08:49:52.174Z,8.65
2022-10-06T08:52:46.914Z,6.70
2022-10-06T08:55:33.962Z,7.68
2022-10-06T08:58:22.839Z,7.85
2022-10-06T09:00:56.930Z,8.23
2022-10-06T09:03:31.205Z,7.88
2022-10-06T09:06:13.439Z,7.45
2022-10-06T09:08:53.194Z,7.90
2022-10-06T09:11:45.378Z,7.43
2022-10-06T09:14:21.084Z,7.45
2022-10-06T09:16:55.395Z,7.28
2022-10-06T09:19:35.249Z,6.95
2022-10-06T09:22:07.888Z,7.07
2022-10-06T09:24:46.987Z,6.90
2022-10-06T09:27:21.879Z,6.75
2022-10-06T09:29:52.285Z,7.88
2022-10-06T09:32:23.797Z,6.65
2022-10-06T09:34:55.450Z,6.85
2022-10-06T09:37:25.150Z,6.70
2022-10-06T09:39:55.690Z,6.47
2022-10-06T09:42:30.122Z,7.05
2022-10-06T09:45:02.562Z,7.10
2022-10-06T09:47:46.016Z,7.63
2022-10-06T09:50:23.003Z,6.80
2022-10-06T09:53:18.584Z,6.18
2022-10-06T09:55:54.934Z,5.90
2022-10-06T09:58:34.681Z,7.03
2022-10-06T10:01:07.917Z,6.18
2022-10-06T10:04:15.655Z,5.57
2022-10-06T10:06:41.813Z,6.57
2022-10-06T10:09:27.283Z,5.05
2022-10-06T10:12:28.307Z,5.07
2022-10-06T10:15:04.129Z,5.85
2022-10-06T10:17:49.368Z,5.97
2022-10-06T10:20:34.056Z,6.20
2022-10-06T10:23:22.863Z,5.25
2022-10-06T10:26:27.444Z,5.65
2022-10-06T10:29:17.050Z,5.18
2022-10-06T10:32:12.236Z,5.65
2022-10-06T10:35:11.741Z,4.63
2022-10-06T10:37:46.753Z,4.75
2022-10-06T10:40:31.331Z,4.68
2022-10-06T10:43:10.662Z,3.95
2022-10-06T10:45:47.269Z,4.30
2022-10-06T10:48:24.389Z,4.53
2022-10-06T10:51:02.933Z,3.85
2022-10-06T10:53:42.863Z,4.45
2022-10-06T10:56:16.219Z,4.28
2022-10-06T10:58:48.861Z,4.28
2022-10-06T11:01:31.127Z,3.90
2022-10-06T11:04:02.570Z,4.07
2022-10-06T11:06:55.432Z,4.00
2022-10-06T11:09:32.317Z,3.78
2022-10-06T11:12:18.597Z,3.70
2022-10-06T11:14:57.406Z,4.18
2022-10-06T11:17:45.292Z,3.65
2022-10-06T11:20:40.285Z,3.35
2022-10-06T11:23:33.750Z,3.22
2022-10-06T11:26:15.172Z,3.88
2022-10-06T11:28:51.826Z,4.00
2022-10-06T11:31:30.991Z,3.55
2022-10-06T11:34:03.285Z,3.85
2022-10-06T11:36:50.215Z,3.67
2022-10-06T11:39:33.278Z,3.50
2022-10-06T11:42:15.435Z,4.00
2022-10-06T11:44:51.806Z,3.45
2022-10-06T11:47:35.006Z,3.30
2022-10-06T11:50:42.773Z,3.70
2022-10-06T11:53:28.911Z,3.78
2022-10-06T11:56:47.069Z,3.42
2022-10-06T11:59:34.201Z,3.03
2022-10-06T12:02:42.625Z,3.88
2022-10-06T12:08:37.000Z,3.22
2022-10-06T12:11:49.418Z,3.25
2022-10-06T12:17:37.390Z,3.30
2022-10-06T12:20:20.227Z,3.30
2022-10-06T12:22:56.828Z,3.13
2022-10-06T12:25:41.048Z,3.08
2022-10-06T12:28:37.600Z,2.60
2022-10-06T12:31:39.868Z,2.97
2022-10-06T12:34:58.148Z,2.53
2022-10-06T12:37:42.598Z,2.80
2022-10-06T12:40:57.820Z,2.50
2022-10-06T12:44:03.917Z,2.58
2022-10-06T12:46:51.069Z,2.67
2022-10-06T12:49:44.292Z,2.70
2022-10-06T12:52:44.596Z,2.30
2022-10-06T12:55:43.586Z,2.30
2022-10-06T12:58:29.893Z,2.47
2022-10-06T13:01:02.459Z,2.60
2022-10-06T13:03:32.291Z,2.67
2022-10-06T13:06:04.872Z,2.67
2022-10-06T13:08:36.708Z,2.38
2022-10-06T13:11:21.885Z,2.42
2022-10-06T13:13:54.384Z,2.72
2022-10-06T13:16:26.381Z,2.80
2022-10-06T13:18:58.921Z,2.70
2022-10-06T13:21:30.124Z,2.88
2022-10-06T13:23:59.378Z,3.20
2022-10-06T13:26:32.737Z,3.13
2022-10-06T13:29:03.168Z,2.67
2022-10-06T13:31:35.228Z,2.70
2022-10-06T13:34:07.981Z,2.20
2022-10-06T13:36:39.981Z,2.50
2022-10-06T13:39:15.359Z,2.90
2022-10-06T13:41:47.620Z,2.55
2022-10-06T13:44:36.097Z,2.53
2022-10-06T13:47:15.373Z,2.35
2022-10-06T13:49:53.199Z,2.60
2022-10-06T13:52:31.511Z,2.40
2022-10-06T13:55:02.116Z,2.40
2022-10-06T13:57:43.461Z,2.35
2022-10-06T14:00:25.470Z,2.40
2022-10-06T14:02:58.903Z,2.28
2022-10-06T14:05:32.823Z,2.40
2022-10-06T14:08:04.093Z,2.38
2022-10-06T14:10:53.429Z,2.28
2022-10-06T14:13:26.550Z,2.30
2022-10-06T14:16:01.686Z,2.40
2022-10-06T14:18:38.288Z,2.25
2022-10-06T14:21:28.874Z,2.13
2022-10-06T14:23:58.330Z,2.50
2022-10-06T14:26:30.240Z,2.30
2022-10-06T14:29:02.405Z,2.03
2022-10-06T14:31:34.197Z,2.50
2022-10-06T14:34:04.685Z,2.58
2022-10-06T14:36:36.901Z,2.30
2022-10-06T14:39:07.811Z,2.33
2022-10-06T14:41:36.908Z,2.40
2022-10-06T14:44:09.663Z,2.10
2022-10-06T14:46:42.334Z,2.28
2022-10-06T14:49:14.240Z,2.45
2022-10-06T14:51:47.470Z,2.50
2022-10-06T14:54:16.806Z,2.53
2022-10-06T14:56:45.852Z,2.25
2022-10-06T14:59:18.221Z,2.47
2022-10-06T15:01:49.964Z,3.70
2022-10-06T15:04:20.945Z,2.58
2022-10-06T15:07:07.593Z,2.55
2022-10-06T15:09:36.865Z,2.30
2022-10-06T15:12:06.293Z,2.33
2022-10-06T15:14:40.069Z,2.30
2022-10-06T15:17:10.788Z,2.75
2022-10-06T15:19:40.401Z,2.38
2022-10-06T15:22:10.469Z,3.17
2022-10-06T15:24:39.537Z,2.50
2022-10-06T15:27:26.114Z,2.92
2022-10-06T15:29:57.468Z,2.97
2022-10-06T15:32:28.098Z,2.60
2022-10-06T15:35:00.277Z,3.33
2022-10-06T15:37:29.482Z,3.17
2022-10-06T15:39:58.825Z,3.00
2022-10-06T15:42:27.900Z,2.80
2022-10-06T15:44:57.425Z,2.80
2022-10-06T15:47:29.351Z,2.78
2022-10-06T15:49:58.748Z,3.25
2022-10-06T15:52:33.946Z,3.10
2022-10-06T15:55:03.602Z,3.03
2022-10-06T15:57:32.651Z,3.08
2022-10-06T16:00:01.639Z,3.50
2022-10-06T16:02:35.617Z,3.00
2022-10-06T16:05:21.844Z,3.05
2022-10-06T16:07:51.084Z,3.13
2022-10-06T16:10:20.249Z,3.08
2022-10-06T16:12:49.227Z,3.38
2022-10-06T16:15:18.307Z,3.28
2022-10-06T16:17:48.916Z,3.83
2022-10-06T16:20:18.304Z,3.63
2022-10-06T16:22:47.307Z,3.58
2022-10-06T16:25:16.629Z,3.83
2022-10-06T16:27:45.883Z,4.25
2022-10-06T16:30:15.433Z,4.07
2022-10-06T16:32:44.624Z,4.22
2022-10-06T16:35:20.610Z,9.82
2022-10-06T16:37:50.113Z,7.03
2022-10-06T16:40:19.232Z,7.43
2022-10-06T16:42:48.435Z,4.88
2022-10-06T16:45:17.537Z,3.70
2022-10-06T16:47:46.672Z,3.40
2022-10-06T16:50:17.380Z,4.18
2022-10-06T16:52:48.592Z,3.58
2022-10-06T16:55:17.764Z,3.95
2022-10-06T16:57:46.895Z,3.60
2022-10-06T17:00:18.414Z,3.50
2022-10-06T17:02:47.400Z,3.95
2022-10-06T17:05:18.197Z,3.80
2022-10-06T17:07:47.239Z,4.05
2022-10-06T17:10:20.445Z,4.18
2022-10-06T17:12:49.850Z,4.93
2022-10-06T17:15:18.888Z,4.88
2022-10-06T17:17:48.057Z,4.20
2022-10-06T17:20:18.591Z,4.40
2022-10-06T17:22:48.638Z,4.15
2022-10-06T17:25:22.355Z,3.67
2022-10-06T17:27:51.539Z,5.30
2022-10-06T17:30:20.638Z,4.20
2022-10-06T17:32:49.869Z,3.95
2022-10-06T17:35:23.528Z,3.65
2022-10-06T17:37:52.544Z,4.60
2022-10-06T17:40:26.027Z,5.00
2022-10-06T17:42:55.698Z,6.53
2022-10-06T17:45:25.082Z,6.93
2022-10-06T17:47:55.358Z,6.13
2022-10-06T17:50:26.051Z,7.38
2022-10-06T17:52:55.100Z,8.00
2022-10-06T17:55:24.315Z,7.15
2022-10-06T17:57:53.559Z,7.57
2022-10-06T18:00:22.661Z,7.32
2022-10-06T18:02:54.868Z,8.80
2022-10-06T18:05:28.468Z,8.75
2022-10-06T18:08:01.892Z,8.32
2022-10-06T18:10:48.316Z,9.93
2022-10-06T18:13:17.376Z,8.82
2022-10-06T18:15:46.840Z,8.40
2022-10-06T18:18:16.181Z,8.70
2022-10-06T18:20:46.943Z,7.82
2022-10-06T18:23:16.705Z,7.90
2022-10-06T18:25:46.116Z,7.78
2022-10-06T18:28:15.370Z,7.80
2022-10-06T18:30:51.382Z,7.13
2022-10-06T18:36:15.029Z,8.40
2022-10-06T18:38:47.197Z,11.13
2022-10-06T18:41:18.977Z,11.23
2022-10-06T18:43:48.122Z,9.70
2022-10-06T18:46:36.127Z,9.48
2022-10-06T18:51:46.186Z,6.07
2022-10-06T18:54:18.916Z,8.40
2022-10-06T18:56:50.090Z,8.73
2022-10-06T18:59:22.974Z,9.48
2022-10-06T19:01:52.683Z,8.43
2022-10-06T19:04:23.716Z,8.25
2022-10-06T19:06:56.656Z,9.90
2022-10-06T19:09:27.085Z,10.18
2022-10-06T19:11:58.954Z,10.15
2022-10-06T19:14:32.180Z,9.25
2022-10-06T19:17:04.100Z,9.32
2022-10-06T19:19:35.132Z,10.10
2022-10-06T19:22:07.554Z,9.32
2022-10-06T19:24:39.102Z,9.27
2022-10-06T19:27:12.183Z,9.55
2022-10-06T19:29:45.792Z,9.55
2022-10-06T19:32:17.986Z,9.98
2022-10-06T19:34:48.540Z,9.98
2022-10-06T19:37:18.984Z,9.32
2022-10-06T19:39:50.275Z,9.48
2022-10-06T19:42:50.083Z,10.27
2022-10-06T19:45:21.082Z,9.55
2022-10-06T19:47:51.419Z,10.10
2022-10-06T19:50:24.148Z,10.25
2022-10-06T19:52:54.713Z,9.63
2022-10-06T19:55:24.940Z,10.45
2022-10-06T19:57:54.039Z,9.18
2022-10-06T20:00:23.239Z,8.50
2022-10-06T20:02:52.258Z,8.95
2022-10-06T20:05:21.967Z,10.13
2022-10-06T20:07:51.046Z,9.38
2022-10-06T20:10:21.671Z,10.23
2022-10-06T20:12:51.027Z,10.02
2022-10-06T20:15:20.839Z,10.73
2022-10-06T20:17:50.048Z,10.00
2022-10-06T20:20:20.570Z,9.50
2022-10-06T20:22:49.830Z,9.82
2022-10-06T20:25:19.055Z,9.95
2022-10-06T20:27:50.353Z,10.55
2022-10-06T20:30:19.688Z,10.52
2022-10-06T20:32:48.826Z,11.20
2022-10-06T20:35:19.797Z,11.15
2022-10-06T20:37:48.897Z,10.95
2022-10-06T20:40:35.350Z,10.27
2022-10-06T20:43:05.896Z,10.80
2022-10-06T20:45:34.972Z,10.98
2022-10-06T20:48:06.272Z,12.40
2022-10-06T20:50:35.349Z,10.88
2022-10-06T20:53:04.475Z,11.45
2022-10-06T20:55:33.531Z,11.25
2022-10-06T20:58:02.568Z,10.40
2022-10-06T21:00:33.039Z,9.57
2022-10-06T21:03:03.106Z,9.38
2022-10-06T21:05:33.139Z,8.07
2022-10-06T21:08:02.233Z,8.00
2022-10-06T21:10:32.049Z,8.80
2022-10-06T21:13:01.315Z,9.98
2022-10-06T21:15:36.556Z,10.57
2022-10-06T21:18:07.079Z,10.68
2022-10-06T21:20:36.582Z,11.00
2022-10-06T21:23:10.718Z,11.55
2022-10-06T21:25:41.049Z,11.68
2022-10-06T21:28:10.155Z,11.98
2022-10-06T21:30:42.358Z,12.07
2022-10-06T21:33:14.637Z,11.88
2022-10-06T21:35:43.670Z,13.02
2022-10-06T21:38:13.234Z,14.57
2022-10-06T21:40:42.340Z,16.02
2022-10-06T21:43:11.327Z,16.00
2022-10-06T21:45:42.243Z,17.10
2022-10-06T21:48:11.252Z,14.63
2022-10-06T21:50:40.395Z,13.07
2022-10-06T21:53:09.559Z,10.68
2022-10-06T21:55:38.611Z,10.77
2022-10-06T21:58:07.596Z,9.35
2022-10-06T22:00:36.751Z,9.73
2022-10-06T22:03:09.082Z,10.02
2022-10-06T22:05:39.831Z,11.10
2022-10-06T22:08:08.859Z,10.25
2022-10-06T22:10:37.941Z,9.82
2022-10-06T22:13:07.169Z,9.23
2022-10-06T22:15:37.458Z,9.43
2022-10-06T22:18:07.892Z,9.63
2022-10-06T22:20:36.985Z,9.93
2022-10-06T22:23:05.989Z,10.88
2022-10-06T22:25:35.015Z,12.27
2022-10-06T22:28:08.729Z,12.85
2022-10-06T22:30:37.827Z,12.95
2022-10-06T22:33:08.283Z,13.68
2022-10-06T22:35:37.491Z,10.43
2022-10-06T22:38:06.707Z,10.30
2022-10-06T22:40:35.790Z,12.18
2022-10-06T22:43:04.926Z,11.35
2022-10-06T22:45:34.041Z,10.18
2022-10-06T22:48:03.207Z,9.43
2022-10-06T22:50:33.763Z,9.32
2022-10-06T22:53:02.965Z,8.50
2022-10-06T22:55:32.097Z,8.60
2022-10-06T22:58:01.063Z,8.18
2022-10-06T23:00:30.162Z,7.50
2022-10-06T23:02:59.346Z,7.22
2022-10-06T23:05:28.861Z,7.47
2022-10-06T23:07:59.431Z,7.38
2022-10-06T23:10:29.728Z,8.18
2022-10-06T23:12:59.997Z,7.85
2022-10-06T23:15:29.759Z,7.82
2022-10-06T23:17:58.726Z,7.60
2022-10-06T23:20:27.766Z,9.55
2022-10-06T23:22:58.158Z,10.27
2022-10-06T23:25:27.514Z,9.07
2022-10-06T23:27:56.698Z,8.63
2022-10-06T23:30:25.755Z,9.25
2022-10-06T23:32:54.768Z,9.52
2022-10-06T23:35:23.949Z,9.50
2022-10-06T23:37:53.039Z,9.48
2022-10-06T23:40:23.499Z,10.07
2022-10-06T23:42:52.515Z,9.32
2022-10-06T23:45:21.548Z,9.32
2022-10-06T23:47:50.510Z,9.52
2022-10-06T23:50:19.686Z,9.70
2022-10-06T23:52:48.720Z,11.27
2022-10-06T23:55:17.674Z,10.48
2022-10-06T23:57:48.035Z,10.15
